Time;durP1;ratioP1;P1;durP2;ratioP2;P2;SDS_P1;SDS_P2;PMS_P1;PMS_P2;Temp;Humidity;BMP_temperature;BMP_pressure;BME280_temperature;BME280_humidity;BME280_pressure;Samples;Min_cycle;Max_cycle;Signal;HPM_P1;HPM_P2
2024/01/28 00:00:41;;;;;;;;;;;17.30;62.90;;;;;;5014137;28;1586;-67
2024/01/28 00:03:06;;;;;;;;;;;17.30;62.90;;;;;;5017755;28;1473;-67
2024/01/28 00:05:32;;;;;;;;;;;17.30;62.90;;;;;;5017939;28;1918;-67
2024/01/28 00:07:58;;;;;;;;;;;17.30;62.90;;;;;;5018054;28;1271;-67
2024/01/28 00:10:23;;;;;;;;;;;17.30;62.90;;;;;;5016726;28;1419;-67
2024/01/28 00:12:49;;;;;;;;;;;17.30;63.00;;;;;;5018657;28;1431;-68
2024/01/28 00:15:14;;;;;;;;;;;17.30;62.90;;;;;;5016516;28;1628;-68
2024/01/28 00:17:40;;;;;;;;;;;17.30;62.90;;;;;;5020517;28;1376;-68
2024/01/28 00:20:05;;;;;;;;;;;17.30;62.90;;;;;;5019455;28;1471;-67
2024/01/28 00:22:31;;;;;;;;;;;17.30;62.90;;;;;;5019807;28;1469;-68
2024/01/28 00:24:57;;;;;;;;;;;17.30;62.90;;;;;;5017671;28;1967;-67
2024/01/28 00:27:22;;;;;;;;;;;17.30;62.90;;;;;;5020275;28;1533;-68
2024/01/28 00:29:48;;;;;;;;;;;17.30;63.00;;;;;;5017944;28;1421;-68
2024/01/28 00:32:13;;;;;;;;;;;17.30;62.90;;;;;;5021384;28;1274;-67
2024/01/28 00:34:39;;;;;;;;;;;17.30;62.90;;;;;;5019440;28;1314;-67
2024/01/28 00:37:04;;;;;;;;;;;17.30;63.00;;;;;;5017999;28;1277;-67
2024/01/28 00:39:30;;;;;;;;;;;17.30;62.90;;;;;;5019228;28;1469;-67
2024/01/28 00:41:55;;;;;;;;;;;17.30;63.00;;;;;;5019066;28;1458;-67
2024/01/28 00:44:21;;;;;;;;;;;17.30;62.90;;;;;;5019386;28;1930;-67
2024/01/28 00:46:46;;;;;;;;;;;17.30;62.90;;;;;;5018327;28;1296;-68
2024/01/28 00:49:12;;;;;;;;;;;17.30;62.90;;;;;;5018582;28;1648;-68
2024/01/28 00:51:37;;;;;;;;;;;17.30;62.90;;;;;;5018294;28;1483;-68
2024/01/28 00:54:04;;;;;;;;;;;17.30;62.90;;;;;;5017373;28;1462;-68
2024/01/28 00:56:29;;;;;;;;;;;17.30;62.90;;;;;;5018473;28;1403;-68
2024/01/28 00:58:55;;;;;;;;;;;17.30;63.00;;;;;;5021323;28;1240;-68
2024/01/28 01:01:20;;;;;;;;;;;17.30;62.90;;;;;;5018877;28;1625;-68
2024/01/28 01:03:47;;;;;;;;;;;17.30;62.90;;;;;;5021770;28;1355;-67
2024/01/28 01:06:12;;;;;;;;;;;17.30;62.90;;;;;;5017776;28;1898;-67
2024/01/28 01:08:38;;;;;;;;;;;17.30;63.00;;;;;;5017143;28;1411;-67
2024/01/28 01:11:05;;;;;;;;;;;17.30;63.70;;;;;;5016378;28;1414;-67
2024/01/28 01:13:31;;;;;;;;;;;17.30;62.90;;;;;;5018920;28;1305;-68
2024/01/28 01:15:56;;;;;;;;;;;17.30;62.90;;;;;;5025989;28;1493;-67
2024/01/28 01:18:23;;;;;;;;;;;17.30;62.90;;;;;;5019862;28;1486;-67
2024/01/28 01:20:49;;;;;;;;;;;17.30;63.70;;;;;;5021281;28;1560;-67
2024/01/28 01:23:15;;;;;;;;;;;17.20;62.90;;;;;;5020012;28;1411;-67
2024/01/28 01:25:40;;;;;;;;;;;17.30;62.90;;;;;;5021097;28;1957;-67
2024/01/28 01:28:06;;;;;;;;;;;17.30;62.90;;;;;;5023192;28;1451;-67
2024/01/28 01:30:31;;;;;;;;;;;17.20;62.90;;;;;;5026100;28;1444;-67
2024/01/28 01:32:57;;;;;;;;;;;17.20;62.90;;;;;;5021575;28;997;-67
2024/01/28 01:35:22;;;;;;;;;;;17.30;63.00;;;;;;5022713;28;1156;-67
2024/01/28 01:37:48;;;;;;;;;;;17.30;62.90;;;;;;5022844;28;1364;-67
2024/01/28 01:40:16;;;;;;;;;;;17.20;62.90;;;;;;5021503;28;911;-67
2024/01/28 01:42:43;;;;;;;;;;;17.30;62.90;;;;;;5020568;28;1420;-68
2024/01/28 01:45:08;;;;;;;;;;;17.20;62.90;;;;;;5022286;28;1953;-67
2024/01/28 01:47:34;;;;;;;;;;;17.20;62.90;;;;;;5018648;28;1358;-68
2024/01/28 01:49:59;;;;;;;;;;;17.30;63.00;;;;;;5030086;28;1153;-67
2024/01/28 01:52:25;;;;;;;;;;;17.20;62.90;;;;;;5028370;28;1235;-69
2024/01/28 01:54:53;;;;;;;;;;;17.30;63.00;;;;;;5019350;28;1708;-66
2024/01/28 01:57:19;;;;;;;;;;;17.20;62.90;;;;;;5022169;28;1781;-67
2024/01/28 01:59:45;;;;;;;;;;;17.30;63.00;;;;;;5020694;28;1449;-67
2024/01/28 02:02:10;;;;;;;;;;;17.20;62.90;;;;;;5018776;28;1794;-66
2024/01/28 02:04:36;;;;;;;;;;;17.30;63.00;;;;;;5018612;28;1898;-66
2024/01/28 02:07:01;;;;;;;;;;;17.30;63.00;;;;;;5022394;28;1308;-67
2024/01/28 02:09:27;;;;;;;;;;;17.20;62.90;;;;;;5022380;28;1790;-66
2024/01/28 02:11:52;;;;;;;;;;;17.20;62.90;;;;;;5018701;28;1228;-66
2024/01/28 02:14:24;;;;;;;;;;;17.30;63.00;;;;;;5006933;28;1487;-66
2024/01/28 02:16:49;;;;;;;;;;;17.20;62.90;;;;;;5018491;28;1617;-67
2024/01/28 02:19:19;;;;;;;;;;;17.30;63.00;;;;;;5023263;28;1595;-67
2024/01/28 02:21:45;;;;;;;;;;;17.30;63.00;;;;;;5020476;28;1143;-67
2024/01/28 02:24:13;;;;;;;;;;;17.20;62.90;;;;;;5021972;28;1962;-67
2024/01/28 02:26:42;;;;;;;;;;;17.20;62.90;;;;;;5020937;28;1493;-68
2024/01/28 02:29:07;;;;;;;;;;;17.20;63.00;;;;;;5020381;28;1582;-68
2024/01/28 02:31:33;;;;;;;;;;;17.20;63.00;;;;;;5017054;28;1477;-68
2024/01/28 02:33:58;;;;;;;;;;;17.20;62.90;;;;;;5021693;28;1461;-67
2024/01/28 02:36:24;;;;;;;;;;;17.20;63.00;;;;;;5020967;28;1353;-70
2024/01/28 02:38:49;;;;;;;;;;;17.20;63.00;;;;;;5016695;28;1574;-69
2024/01/28 02:41:15;;;;;;;;;;;17.20;63.00;;;;;;5018761;28;1255;-69
2024/01/28 02:43:40;;;;;;;;;;;17.20;63.00;;;;;;5019681;28;1581;-69
2024/01/28 02:46:06;;;;;;;;;;;17.20;63.00;;;;;;5020062;28;1898;-68
2024/01/28 02:48:31;;;;;;;;;;;17.20;63.00;;;;;;5017410;28;1501;-69
2024/01/28 02:50:57;;;;;;;;;;;17.20;63.00;;;;;;5020467;28;1582;-67
2024/01/28 02:53:22;;;;;;;;;;;17.20;63.00;;;;;;5020639;28;1388;-67
2024/01/28 02:55:49;;;;;;;;;;;17.20;63.00;;;;;;5019075;28;1542;-68
2024/01/28 02:58:16;;;;;;;;;;;17.20;63.00;;;;;;5019594;28;1514;-67
2024/01/28 03:00:41;;;;;;;;;;;17.20;63.00;;;;;;5019330;28;1493;-69
2024/01/28 03:03:07;;;;;;;;;;;17.20;63.00;;;;;;5021242;28;1492;-68
2024/01/28 03:05:33;;;;;;;;;;;17.20;63.00;;;;;;5002977;28;1910;-68
2024/01/28 03:07:58;;;;;;;;;;;17.20;63.00;;;;;;5019807;28;1587;-69
2024/01/28 03:10:23;;;;;;;;;;;17.20;63.00;;;;;;5018657;28;1854;-68
2024/01/28 03:12:49;;;;;;;;;;;17.20;63.00;;;;;;5020324;28;1578;-68
2024/01/28 03:15:18;;;;;;;;;;;17.20;63.00;;;;;;5018342;28;1476;-68
2024/01/28 03:17:43;;;;;;;;;;;17.20;63.00;;;;;;5019413;28;1351;-68
2024/01/28 03:20:10;;;;;;;;;;;17.20;63.00;;;;;;5020061;28;1597;-68
2024/01/28 03:22:35;;;;;;;;;;;17.20;63.00;;;;;;5019704;28;1473;-67
2024/01/28 03:25:01;;;;;;;;;;;17.20;63.00;;;;;;5053812;28;1965;-67
2024/01/28 03:27:26;;;;;;;;;;;17.20;63.00;;;;;;5022833;28;1629;-69
2024/01/28 03:29:51;;;;;;;;;;;17.20;63.00;;;;;;5020920;28;1460;-68
2024/01/28 03:32:17;;;;;;;;;;;17.20;63.00;;;;;;5017628;28;1424;-68
2024/01/28 03:34:42;;;;;;;;;;;17.20;62.90;;;;;;5020467;28;1456;-68
2024/01/28 03:37:08;;;;;;;;;;;17.20;63.00;;;;;;5021589;28;1884;-68
2024/01/28 03:39:33;;;;;;;;;;;17.20;63.00;;;;;;5020181;28;1230;-68
2024/01/28 03:41:59;;;;;;;;;;;17.20;63.00;;;;;;5015994;28;895;-66
2024/01/28 03:44:24;;;;;;;;;;;17.20;63.00;;;;;;5019222;28;1969;-67
2024/01/28 03:46:50;;;;;;;;;;;17.20;63.00;;;;;;5017321;28;1575;-67
2024/01/28 03:49:15;;;;;;;;;;;17.20;63.00;;;;;;5019432;28;1296;-67
2024/01/28 03:51:41;;;;;;;;;;;17.20;63.00;;;;;;5019911;28;1310;-66
2024/01/28 03:54:06;;;;;;;;;;;17.20;63.00;;;;;;5019392;28;1541;-66
2024/01/28 03:56:34;;;;;;;;;;;17.20;63.00;;;;;;5018030;28;1288;-68
2024/01/28 03:59:00;;;;;;;;;;;17.20;63.00;;;;;;5018491;28;1455;-68
2024/01/28 04:01:32;;;;;;;;;;;17.20;63.00;;;;;;5018777;28;1460;-68
2024/01/28 04:03:58;;;;;;;;;;;17.20;63.00;;;;;;5018656;28;1387;-68
2024/01/28 04:06:23;;;;;;;;;;;17.20;63.00;;;;;;5019715;28;1902;-68
2024/01/28 04:08:49;;;;;;;;;;;17.20;63.00;;;;;;5018886;28;1366;-68
2024/01/28 04:11:15;;;;;;;;;;;17.20;63.00;;;;;;5018257;28;1466;-68
2024/01/28 04:13:40;;;;;;;;;;;17.20;63.00;;;;;;5017124;28;1626;-68
2024/01/28 04:16:06;;;;;;;;;;;17.20;63.00;;;;;;5019324;28;1340;-68
2024/01/28 04:18:31;;;;;;;;;;;17.20;63.00;;;;;;5018469;28;1619;-68
2024/01/28 04:20:57;;;;;;;;;;;17.20;63.00;;;;;;5017096;28;1667;-68
2024/01/28 04:23:22;;;;;;;;;;;17.20;63.00;;;;;;5018815;28;931;-68
2024/01/28 04:25:48;;;;;;;;;;;17.20;63.00;;;;;;5014557;28;1914;-68
2024/01/28 04:28:14;;;;;;;;;;;17.20;63.00;;;;;;5019475;28;1149;-68
2024/01/28 04:30:40;;;;;;;;;;;17.20;63.00;;;;;;5020594;28;855;-68
2024/01/28 04:33:05;;;;;;;;;;;17.20;63.00;;;;;;5019525;28;1450;-68
2024/01/28 04:35:31;;;;;;;;;;;17.20;63.00;;;;;;5019249;28;1689;-67
2024/01/28 04:37:57;;;;;;;;;;;17.20;63.00;;;;;;5018648;28;1521;-68
2024/01/28 04:40:22;;;;;;;;;;;17.20;63.00;;;;;;5017157;28;1375;-68
2024/01/28 04:42:47;;;;;;;;;;;17.20;63.00;;;;;;5018722;28;1614;-68
2024/01/28 04:45:13;;;;;;;;;;;17.20;63.00;;;;;;5021027;28;1918;-68
2024/01/28 04:47:39;;;;;;;;;;;17.20;63.00;;;;;;5012693;28;1707;-68
2024/01/28 04:50:05;;;;;;;;;;;17.20;63.00;;;;;;5017920;28;1523;-68
2024/01/28 04:52:30;;;;;;;;;;;17.20;63.00;;;;;;5033196;28;1367;-68
2024/01/28 04:54:56;;;;;;;;;;;17.20;63.00;;;;;;5022283;28;1269;-68
2024/01/28 04:57:21;;;;;;;;;;;17.20;63.00;;;;;;5023505;28;1508;-68
2024/01/28 04:59:47;;;;;;;;;;;17.20;63.00;;;;;;5020117;28;1269;-68
2024/01/28 05:02:13;;;;;;;;;;;17.20;63.00;;;;;;5021260;28;1489;-69
2024/01/28 05:04:38;;;;;;;;;;;17.20;63.10;;;;;;5020906;28;1891;-68
2024/01/28 05:07:04;;;;;;;;;;;17.20;63.00;;;;;;5021379;28;1375;-68
2024/01/28 05:09:31;;;;;;;;;;;17.20;63.00;;;;;;5021166;28;1736;-67
2024/01/28 05:11:56;;;;;;;;;;;17.20;63.10;;;;;;5017080;28;836;-69
2024/01/28 05:14:22;;;;;;;;;;;17.20;63.00;;;;;;5013484;28;1235;-68
2024/01/28 05:16:48;;;;;;;;;;;17.20;62.90;;;;;;5022525;28;1556;-69
2024/01/28 05:19:13;;;;;;;;;;;17.20;62.90;;;;;;5024303;28;1498;-68
2024/01/28 05:21:39;;;;;;;;;;;17.20;62.90;;;;;;5024099;28;1348;-68
2024/01/28 05:24:05;;;;;;;;;;;17.30;62.80;;;;;;5020953;28;1477;-69
2024/01/28 05:26:32;;;;;;;;;;;17.30;62.70;;;;;;5020299;28;1907;-67
2024/01/28 05:29:03;;;;;;;;;;;17.30;62.50;;;;;;5021388;28;1259;-68
2024/01/28 05:31:29;;;;;;;;;;;17.40;62.50;;;;;;5022945;28;1366;-68
2024/01/28 05:33:55;;;;;;;;;;;17.40;62.40;;;;;;5023086;28;1361;-67
2024/01/28 05:36:21;;;;;;;;;;;17.40;62.30;;;;;;5024040;28;1620;-68
2024/01/28 05:38:46;;;;;;;;;;;17.40;62.10;;;;;;5021129;28;1466;-69
2024/01/28 05:41:12;;;;;;;;;;;17.50;62.10;;;;;;5020171;28;1445;-68
2024/01/28 05:43:37;;;;;;;;;;;17.50;62.00;;;;;;5020792;28;1257;-68
2024/01/28 05:46:03;;;;;;;;;;;17.50;62.00;;;;;;5020994;28;1902;-67
2024/01/28 05:48:29;;;;;;;;;;;17.50;61.90;;;;;;5022163;28;1479;-69
2024/01/28 05:50:54;;;;;;;;;;;17.50;61.80;;;;;;5019309;28;1463;-69
2024/01/28 05:53:20;;;;;;;;;;;17.50;61.80;;;;;;5018065;28;1489;-68
2024/01/28 05:55:45;;;;;;;;;;;17.60;61.80;;;;;;5019394;28;1336;-67
2024/01/28 05:58:10;;;;;;;;;;;17.60;61.70;;;;;;5021436;28;1298;-69
2024/01/28 06:00:39;;;;;;;;;;;17.60;61.60;;;;;;5016606;28;1251;-68
2024/01/28 06:03:04;;;;;;;;;;;17.60;61.60;;;;;;5020967;28;1579;-69
2024/01/28 06:05:30;;;;;;;;;;;17.60;61.50;;;;;;5020463;28;1914;-69
2024/01/28 06:07:55;;;;;;;;;;;17.60;61.50;;;;;;5019706;28;1411;-67
2024/01/28 06:10:21;;;;;;;;;;;17.60;61.50;;;;;;5022708;28;1517;-68
2024/01/28 06:12:46;;;;;;;;;;;17.60;61.40;;;;;;5020561;28;1437;-67
2024/01/28 06:15:12;;;;;;;;;;;17.60;61.40;;;;;;5024028;28;1520;-68
2024/01/28 06:17:38;;;;;;;;;;;17.70;61.40;;;;;;5019751;28;1304;-67
2024/01/28 06:20:05;;;;;;;;;;;17.70;61.40;;;;;;5023275;28;1333;-67
2024/01/28 06:22:30;;;;;;;;;;;17.70;61.40;;;;;;5018350;28;1696;-67
2024/01/28 06:24:57;;;;;;;;;;;17.70;61.40;;;;;;5019220;28;1971;-68
2024/01/28 06:27:22;;;;;;;;;;;17.70;61.40;;;;;;5020010;28;1455;-67
2024/01/28 06:29:48;;;;;;;;;;;17.70;61.40;;;;;;5021382;28;1578;-67
2024/01/28 06:32:13;;;;;;;;;;;17.70;61.40;;;;;;5018883;28;1344;-68
2024/01/28 06:34:39;;;;;;;;;;;17.60;61.30;;;;;;5020845;28;1211;-68
2024/01/28 06:37:04;;;;;;;;;;;17.70;61.30;;;;;;5021674;28;1367;-68
2024/01/28 06:39:30;;;;;;;;;;;17.70;61.40;;;;;;5019343;28;1450;-66
2024/01/28 06:41:55;;;;;;;;;;;17.60;61.30;;;;;;5018311;28;1144;-66
2024/01/28 06:44:21;;;;;;;;;;;17.60;61.30;;;;;;5021202;28;1961;-66
2024/01/28 06:46:47;;;;;;;;;;;17.60;61.30;;;;;;5019083;28;1323;-67
2024/01/28 06:49:13;;;;;;;;;;;17.60;61.40;;;;;;5020884;28;1245;-67
2024/01/28 06:51:42;;;;;;;;;;;17.60;61.30;;;;;;5017904;28;1478;-67
2024/01/28 06:54:07;;;;;;;;;;;17.70;61.40;;;;;;5017226;28;1462;-67
2024/01/28 06:56:33;;;;;;;;;;;17.60;61.40;;;;;;5021034;28;1425;-68
2024/01/28 06:58:58;;;;;;;;;;;17.60;61.40;;;;;;5023635;28;1289;-66
2024/01/28 07:01:24;;;;;;;;;;;17.60;61.50;;;;;;5020296;28;1616;-68
2024/01/28 07:03:50;;;;;;;;;;;17.60;61.40;;;;;;5018707;28;1458;-68
2024/01/28 07:06:16;;;;;;;;;;;17.60;61.50;;;;;;5023380;28;1902;-68
2024/01/28 07:08:42;;;;;;;;;;;17.60;62.20;;;;;;5017511;28;1426;-68
2024/01/28 07:11:07;;;;;;;;;;;17.60;61.50;;;;;;5020055;28;1253;-68
2024/01/28 07:13:33;;;;;;;;;;;17.60;61.60;;;;;;5014428;28;1867;-68
2024/01/28 07:15:58;;;;;;;;;;;17.60;62.30;;;;;;5018625;28;1642;-68
2024/01/28 07:18:24;;;;;;;;;;;17.60;61.60;;;;;;5019429;28;1437;-67
2024/01/28 07:20:49;;;;;;;;;;;17.60;61.60;;;;;;5018024;28;1111;-66
2024/01/28 07:23:15;;;;;;;;;;;17.60;61.60;;;;;;5017985;28;1166;-67
2024/01/28 07:25:40;;;;;;;;;;;17.60;61.60;;;;;;5016988;28;1895;-66
2024/01/28 07:28:06;;;;;;;;;;;17.60;61.70;;;;;;5016836;28;1306;-67
2024/01/28 07:30:32;;;;;;;;;;;17.60;61.70;;;;;;5020335;28;1851;-69
2024/01/28 07:32:57;;;;;;;;;;;17.60;61.70;;;;;;5018775;28;1138;-65
2024/01/28 07:35:23;;;;;;;;;;;17.60;61.70;;;;;;5017688;28;1577;-68
2024/01/28 07:37:48;;;;;;;;;;;17.60;61.80;;;;;;5049354;28;1497;-70
2024/01/28 07:40:13;;;;;;;;;;;17.50;61.70;;;;;;5021076;28;1687;-67
2024/01/28 07:42:39;;;;;;;;;;;17.50;61.70;;;;;;5020348;28;1126;-67
2024/01/28 07:45:05;;;;;;;;;;;17.60;61.80;;;;;;5027008;28;1965;-67
2024/01/28 07:47:30;;;;;;;;;;;17.50;61.70;;;;;;5021696;28;1562;-70
2024/01/28 07:49:55;;;;;;;;;;;17.50;61.70;;;;;;5015748;28;4034;-67
2024/01/28 07:52:21;;;;;;;;;;;17.50;61.70;;;;;;5017673;28;2778;-67
2024/01/28 07:54:46;;;;;;;;;;;17.50;61.80;;;;;;5017996;28;1560;-68
2024/01/28 07:57:12;;;;;;;;;;;17.50;61.70;;;;;;5020914;28;1483;-67
2024/01/28 07:59:37;;;;;;;;;;;17.50;61.80;;;;;;5018382;28;2162;-67
2024/01/28 08:02:03;;;;;;;;;;;17.50;61.70;;;;;;5018405;28;2190;-67
2024/01/28 08:04:29;;;;;;;;;;;17.50;61.70;;;;;;5018832;28;1918;-67
2024/01/28 08:06:54;;;;;;;;;;;17.50;61.70;;;;;;5019001;28;1458;-67
2024/01/28 08:09:20;;;;;;;;;;;17.50;61.70;;;;;;5021499;28;1283;-67
2024/01/28 08:11:45;;;;;;;;;;;17.60;61.80;;;;;;5019510;28;1328;-68
2024/01/28 08:14:10;;;;;;;;;;;17.50;61.70;;;;;;5019141;28;1474;-68
2024/01/28 08:16:36;;;;;;;;;;;17.60;61.70;;;;;;5017595;28;1458;-67
2024/01/28 08:19:04;;;;;;;;;;;17.60;61.70;;;;;;5026028;28;1474;-68
2024/01/28 08:21:30;;;;;;;;;;;17.60;61.60;;;;;;5017395;28;1360;-68
2024/01/28 08:23:55;;;;;;;;;;;17.60;62.30;;;;;;5016508;28;1964;-68
2024/01/28 08:26:21;;;;;;;;;;;17.60;61.60;;;;;;5025986;28;1956;-68
2024/01/28 08:28:46;;;;;;;;;;;17.60;61.60;;;;;;5018527;28;1414;-68
2024/01/28 08:31:12;;;;;;;;;;;17.60;61.60;;;;;;5019981;28;1685;-68
2024/01/28 08:33:37;;;;;;;;;;;17.60;61.60;;;;;;5019191;28;1519;-68
2024/01/28 08:36:03;;;;;;;;;;;17.60;61.70;;;;;;5015065;28;1645;-67
2024/01/28 08:38:30;;;;;;;;;;;17.60;61.70;;;;;;5016520;28;1706;-68
2024/01/28 08:40:56;;;;;;;;;;;17.60;61.70;;;;;;5018150;28;1476;-68
2024/01/28 08:43:21;;;;;;;;;;;17.60;61.70;;;;;;5026396;28;1361;-68
2024/01/28 08:45:46;;;;;;;;;;;17.60;61.70;;;;;;5000297;28;1895;-68
2024/01/28 08:48:12;;;;;;;;;;;17.60;61.70;;;;;;5019271;28;1325;-67
2024/01/28 08:50:40;;;;;;;;;;;17.60;61.60;;;;;;5016764;28;1550;-67
2024/01/28 08:53:05;;;;;;;;;;;17.60;61.60;;;;;;5016995;28;1256;-68
2024/01/28 08:55:31;;;;;;;;;;;17.60;61.60;;;;;;5017355;28;1776;-68
2024/01/28 08:57:56;;;;;;;;;;;17.60;61.50;;;;;;5017617;28;1291;-68
2024/01/28 09:00:22;;;;;;;;;;;17.60;61.50;;;;;;5016406;28;1445;-68
2024/01/28 09:02:47;;;;;;;;;;;17.60;61.50;;;;;;5017374;28;1607;-68
2024/01/28 09:05:13;;;;;;;;;;;17.60;61.40;;;;;;5020091;28;1989;-67
2024/01/28 09:07:39;;;;;;;;;;;17.60;61.40;;;;;;5016733;28;1535;-67
2024/01/28 09:10:06;;;;;;;;;;;17.60;61.40;;;;;;5018426;28;1374;-67
2024/01/28 09:12:33;;;;;;;;;;;17.60;61.40;;;;;;5018483;28;1809;-67
2024/01/28 09:14:58;;;;;;;;;;;17.60;61.40;;;;;;5016530;28;1711;-68
2024/01/28 09:17:24;;;;;;;;;;;17.60;61.40;;;;;;5018049;28;1429;-68
2024/01/28 09:19:49;;;;;;;;;;;17.60;61.30;;;;;;5016625;28;1596;-68
2024/01/28 09:22:14;;;;;;;;;;;17.70;62.10;;;;;;5015677;28;1492;-68
2024/01/28 09:24:40;;;;;;;;;;;17.70;61.40;;;;;;5015000;28;1902;-68
2024/01/28 09:27:06;;;;;;;;;;;17.70;61.30;;;;;;5018879;28;1455;-68
2024/01/28 09:29:31;;;;;;;;;;;17.60;61.20;;;;;;5017160;28;1327;-68
2024/01/28 09:31:59;;;;;;;;;;;17.70;61.30;;;;;;5013879;28;1106;-68
2024/01/28 09:34:24;;;;;;;;;;;17.70;61.20;;;;;;5014770;28;1629;-68
2024/01/28 09:36:50;;;;;;;;;;;17.70;61.20;;;;;;5018477;28;1538;-68
2024/01/28 09:39:15;;;;;;;;;;;17.70;61.20;;;;;;5019514;28;1438;-67
2024/01/28 09:42:04;;;;;;;;;;;17.70;61.30;;;;;;5021262;28;1526;-68
2024/01/28 09:44:30;;;;;;;;;;;17.70;61.20;;;;;;5023769;28;1895;-68
2024/01/28 09:46:55;;;;;;;;;;;17.70;61.20;;;;;;5019208;28;1639;-68
2024/01/28 09:49:21;;;;;;;;;;;17.70;61.20;;;;;;5020485;28;1664;-68
2024/01/28 09:51:46;;;;;;;;;;;17.70;61.20;;;;;;5019724;28;1481;-68
2024/01/28 09:54:12;;;;;;;;;;;17.70;61.20;;;;;;5028258;28;1363;-68
2024/01/28 09:56:38;;;;;;;;;;;17.70;61.20;;;;;;5025331;28;1912;-68
2024/01/28 09:59:04;;;;;;;;;;;17.70;61.20;;;;;;5004857;28;1254;-68
2024/01/28 10:01:30;;;;;;;;;;;17.70;61.20;;;;;;5021951;28;1588;-68
2024/01/28 10:03:56;;;;;;;;;;;17.70;61.20;;;;;;5021176;28;1664;-68
2024/01/28 10:06:22;;;;;;;;;;;17.70;61.20;;;;;;5020151;28;1914;-68
2024/01/28 10:08:47;;;;;;;;;;;17.70;61.20;;;;;;5016660;28;1368;-68
2024/01/28 10:11:14;;;;;;;;;;;17.70;61.20;;;;;;5019744;28;1504;-68
2024/01/28 10:13:40;;;;;;;;;;;17.70;61.20;;;;;;5008939;28;1245;-68
2024/01/28 10:16:05;;;;;;;;;;;17.70;61.20;;;;;;5019036;28;1237;-68
2024/01/28 10:18:31;;;;;;;;;;;17.70;61.20;;;;;;5020250;28;1602;-68
2024/01/28 10:20:56;;;;;;;;;;;17.70;61.20;;;;;;5020597;28;1240;-68
2024/01/28 10:23:22;;;;;;;;;;;17.70;61.20;;;;;;5020336;28;1440;-67
2024/01/28 10:25:47;;;;;;;;;;;17.70;61.20;;;;;;5022108;28;1960;-67
2024/01/28 10:28:13;;;;;;;;;;;17.70;61.30;;;;;;5019488;28;1659;-69
2024/01/28 10:30:39;;;;;;;;;;;17.70;61.30;;;;;;5028293;28;1379;-68
2024/01/28 10:33:04;;;;;;;;;;;17.70;61.30;;;;;;5019362;28;1537;-69
2024/01/28 10:35:30;;;;;;;;;;;17.70;61.30;;;;;;5013651;28;1679;-67
2024/01/28 10:37:56;;;;;;;;;;;17.70;61.30;;;;;;5020637;28;1535;-67
2024/01/28 10:40:23;;;;;;;;;;;17.70;61.40;;;;;;5016453;28;1860;-67
2024/01/28 10:42:52;;;;;;;;;;;17.70;61.40;;;;;;5017448;28;1506;-67
2024/01/28 10:45:18;;;;;;;;;;;17.70;61.40;;;;;;5018288;28;1967;-68
2024/01/28 10:47:56;;;;;;;;;;;17.60;61.40;;;;;;5020332;28;1587;-68
2024/01/28 10:50:22;;;;;;;;;;;17.60;61.40;;;;;;5020526;28;1609;-68
2024/01/28 10:52:47;;;;;;;;;;;17.60;61.40;;;;;;5017136;28;1938;-68
2024/01/28 10:55:14;;;;;;;;;;;17.60;61.50;;;;;;5019144;28;1355;-67
2024/01/28 10:57:40;;;;;;;;;;;17.60;61.50;;;;;;5021570;28;1511;-67
2024/01/28 11:00:06;;;;;;;;;;;17.60;61.50;;;;;;5018855;28;2314;-66
2024/01/28 11:02:32;;;;;;;;;;;17.60;61.50;;;;;;5020327;28;1928;-67
2024/01/28 11:04:57;;;;;;;;;;;17.60;61.50;;;;;;5020739;28;1961;-69
2024/01/28 11:07:24;;;;;;;;;;;17.60;61.60;;;;;;5020589;28;1618;-69
2024/01/28 11:09:50;;;;;;;;;;;17.60;61.60;;;;;;5020814;28;4868;-70
2024/01/28 11:12:15;;;;;;;;;;;17.60;61.60;;;;;;5028353;28;1459;-69
2024/01/28 11:14:41;;;;;;;;;;;17.60;61.70;;;;;;5017807;28;1560;-69
2024/01/28 11:17:09;;;;;;;;;;;17.60;61.60;;;;;;5019101;28;1454;-69
2024/01/28 11:19:35;;;;;;;;;;;17.60;61.70;;;;;;5020738;28;1456;-69
2024/01/28 11:22:02;;;;;;;;;;;17.60;61.70;;;;;;5020623;28;1533;-69
2024/01/28 11:24:28;;;;;;;;;;;17.60;62.40;;;;;;5022004;28;1906;-69
2024/01/28 11:26:56;;;;;;;;;;;17.60;61.80;;;;;;5020932;28;1369;-69
2024/01/28 11:29:21;;;;;;;;;;;17.50;61.70;;;;;;5018233;28;1435;-69
2024/01/28 11:31:46;;;;;;;;;;;17.50;61.70;;;;;;5018453;28;2119;-68
2024/01/28 11:34:17;;;;;;;;;;;17.50;61.70;;;;;;5016224;28;1859;-68
2024/01/28 11:36:46;;;;;;;;;;;17.50;61.70;;;;;;5015634;28;1983;-68
2024/01/28 11:39:12;;;;;;;;;;;17.50;61.80;;;;;;5018068;28;1832;-68
2024/01/28 11:41:38;;;;;;;;;;;17.50;61.80;;;;;;5018722;28;1467;-69
2024/01/28 11:44:04;;;;;;;;;;;17.50;61.80;;;;;;5018732;28;1014;-67
2024/01/28 11:46:30;;;;;;;;;;;17.50;61.80;;;;;;5003642;28;1902;-69
2024/01/28 11:48:55;;;;;;;;;;;17.50;61.80;;;;;;5022610;28;1657;-69
2024/01/28 11:51:21;;;;;;;;;;;17.50;61.80;;;;;;5019936;28;1473;-68
2024/01/28 11:53:46;;;;;;;;;;;17.50;61.80;;;;;;5019987;28;1661;-68
2024/01/28 11:56:12;;;;;;;;;;;17.50;61.90;;;;;;5017769;28;1478;-68
2024/01/28 11:58:37;;;;;;;;;;;17.50;61.90;;;;;;5020014;28;1455;-69
2024/01/28 12:01:03;;;;;;;;;;;17.50;61.90;;;;;;5015628;28;1699;-69
2024/01/28 12:03:28;;;;;;;;;;;17.50;61.90;;;;;;5016590;28;1467;-69
2024/01/28 12:05:54;;;;;;;;;;;17.50;62.00;;;;;;5033022;28;1951;-69
2024/01/28 12:08:26;;;;;;;;;;;17.50;62.00;;;;;;5042515;28;1581;-68
2024/01/28 12:10:58;;;;;;;;;;;17.50;62.00;;;;;;5026847;28;1554;-68
2024/01/28 12:13:23;;;;;;;;;;;17.50;62.00;;;;;;5017443;28;1536;-68
2024/01/28 12:15:49;;;;;;;;;;;17.50;62.00;;;;;;5003415;28;1481;-68
2024/01/28 12:18:14;;;;;;;;;;;17.50;62.10;;;;;;5019502;28;1503;-68
2024/01/28 12:20:40;;;;;;;;;;;17.50;62.00;;;;;;5016822;28;1491;-68
2024/01/28 12:23:05;;;;;;;;;;;17.50;62.00;;;;;;5018214;28;1515;-68
2024/01/28 12:25:33;;;;;;;;;;;17.40;62.00;;;;;;5019605;28;1902;-68
2024/01/28 12:27:59;;;;;;;;;;;17.50;62.10;;;;;;5010360;28;1673;-68
2024/01/28 12:30:24;;;;;;;;;;;17.40;62.00;;;;;;5015913;28;1763;-68
2024/01/28 12:32:50;;;;;;;;;;;17.40;62.00;;;;;;5019452;28;1641;-69
2024/01/28 12:35:16;;;;;;;;;;;17.40;62.00;;;;;;5003233;28;1358;-68
2024/01/28 12:37:41;;;;;;;;;;;17.40;62.10;;;;;;5016815;28;1468;-69
2024/01/28 12:40:07;;;;;;;;;;;17.50;62.10;;;;;;5017938;28;1456;-69
2024/01/28 12:42:35;;;;;;;;;;;17.40;62.00;;;;;;5018775;28;1557;-68
2024/01/28 12:45:00;;;;;;;;;;;17.40;62.00;;;;;;5019412;28;1902;-69
2024/01/28 12:47:26;;;;;;;;;;;17.40;62.00;;;;;;5015984;28;1489;-68
2024/01/28 12:49:51;;;;;;;;;;;17.40;62.10;;;;;;5003030;28;1537;-66
2024/01/28 12:52:17;;;;;;;;;;;17.40;62.00;;;;;;5017730;28;1479;-67
2024/01/28 12:54:42;;;;;;;;;;;17.40;62.10;;;;;;5019651;28;951;-68
2024/01/28 12:57:12;;;;;;;;;;;17.40;62.10;;;;;;5017283;28;1398;-67
2024/01/28 12:59:37;;;;;;;;;;;17.40;62.10;;;;;;5018807;28;1708;-68
2024/01/28 13:02:04;;;;;;;;;;;17.40;62.10;;;;;;5018464;28;1536;-68
2024/01/28 13:04:30;;;;;;;;;;;17.40;62.10;;;;;;5018633;28;1914;-67
2024/01/28 13:06:55;;;;;;;;;;;17.40;62.10;;;;;;5015122;28;1390;-67
2024/01/28 13:09:20;;;;;;;;;;;17.50;62.20;;;;;;5016059;28;1476;-68
2024/01/28 13:11:46;;;;;;;;;;;17.40;62.10;;;;;;5019698;28;1583;-68
2024/01/28 13:14:12;;;;;;;;;;;17.40;62.10;;;;;;5017084;28;1336;-68
2024/01/28 13:16:37;;;;;;;;;;;17.40;62.00;;;;;;5011657;28;1384;-68
2024/01/28 13:19:03;;;;;;;;;;;17.40;62.00;;;;;;5022428;28;1497;-68
2024/01/28 13:21:28;;;;;;;;;;;17.40;62.10;;;;;;5021367;28;1678;-68
2024/01/28 13:23:54;;;;;;;;;;;17.40;62.00;;;;;;5022189;28;1403;-68
2024/01/28 13:26:21;;;;;;;;;;;17.40;62.00;;;;;;5020984;28;1898;-68
2024/01/28 13:28:47;;;;;;;;;;;17.40;62.00;;;;;;5023570;28;1331;-68
2024/01/28 13:31:12;;;;;;;;;;;17.50;62.00;;;;;;5023075;28;1588;-68
2024/01/28 13:33:38;;;;;;;;;;;17.50;62.00;;;;;;5023078;28;1803;-68
2024/01/28 13:36:03;;;;;;;;;;;17.50;62.00;;;;;;5021941;28;1467;-68
2024/01/28 13:38:29;;;;;;;;;;;17.50;61.90;;;;;;5006090;28;1665;-68
2024/01/28 13:40:54;;;;;;;;;;;17.50;61.90;;;;;;5021570;28;1541;-68
2024/01/28 13:43:20;;;;;;;;;;;17.50;61.90;;;;;;5022952;28;1597;-68
2024/01/28 13:45:45;;;;;;;;;;;17.50;61.90;;;;;;5019399;28;1902;-68
2024/01/28 13:48:10;;;;;;;;;;;17.50;61.80;;;;;;5019829;28;1545;-68
2024/01/28 13:50:36;;;;;;;;;;;17.50;61.80;;;;;;5019229;28;1499;-68
2024/01/28 13:53:02;;;;;;;;;;;17.50;61.70;;;;;;5020504;28;1341;-68
2024/01/28 13:55:28;;;;;;;;;;;17.50;61.70;;;;;;5021883;28;1463;-68
2024/01/28 13:57:53;;;;;;;;;;;17.50;61.70;;;;;;5022958;28;1412;-68
2024/01/28 14:00:19;;;;;;;;;;;17.50;61.70;;;;;;5024299;28;1654;-68
2024/01/28 14:02:45;;;;;;;;;;;17.60;61.70;;;;;;5020888;28;1263;-68
2024/01/28 14:05:12;;;;;;;;;;;17.50;61.70;;;;;;5017432;28;1913;-68
2024/01/28 14:07:38;;;;;;;;;;;17.50;61.60;;;;;;5021124;28;1896;-68
2024/01/28 14:10:03;;;;;;;;;;;17.60;61.70;;;;;;5019478;28;1997;-68
2024/01/28 14:12:29;;;;;;;;;;;17.60;61.70;;;;;;5021769;28;1349;-68
2024/01/28 14:14:54;;;;;;;;;;;17.60;61.70;;;;;;5018850;28;2113;-67
2024/01/28 14:17:20;;;;;;;;;;;17.60;61.70;;;;;;5020308;28;1463;-67
2024/01/28 14:19:46;;;;;;;;;;;17.60;61.60;;;;;;5020614;28;1646;-69
2024/01/28 14:22:11;;;;;;;;;;;17.60;61.60;;;;;;5022542;28;1462;-69